createdAt,value
2022-12-31T00:02:04.548Z,99256.44
2022-12-31T00:06:26.027Z,99265.56
2022-12-31T00:10:28.611Z,99263.88
2022-12-31T00:14:30.234Z,99258.34
2022-12-31T00:18:31.782Z,99264.16
2022-12-31T00:22:33.392Z,99271.91
2022-12-31T00:26:35.768Z,99243.13
2022-12-31T00:30:37.395Z,99251.09
2022-12-31T00:34:38.976Z,99257.75
2022-12-31T00:38:43.883Z,99252.22
2022-12-31T00:42:45.474Z,99267.13
2022-12-31T00:46:47.053Z,99262.97
2022-12-31T00:50:48.593Z,99273.22
2022-12-31T00:54:50.159Z,99269.88
2022-12-31T00:58:52.348Z,99279.31
2022-12-31T01:02:53.990Z,99286.75
2022-12-31T01:06:55.676Z,99294.25
2022-12-31T01:11:15.696Z,99303.06
2022-12-31T01:15:17.314Z,99303.91
2022-12-31T01:19:25.715Z,99299.22
2022-12-31T01:23:27.244Z,99308.34
2022-12-31T01:27:29.154Z,99310.03
2022-12-31T01:31:30.868Z,99332.75
2022-12-31T01:35:35.034Z,99337.75
2022-12-31T01:39:36.573Z,99343.28
2022-12-31T01:43:54.509Z,99340.53
2022-12-31T01:47:59.130Z,99359.63
2022-12-31T01:52:04.749Z,99359.06
2022-12-31T01:56:07.394Z,99351.25
2022-12-31T02:00:10.056Z,99354.59
2022-12-31T02:04:13.594Z,99353.72
2022-12-31T02:08:16.056Z,99349.88
2022-12-31T02:12:17.663Z,99344.91
2022-12-31T02:16:27.845Z,99334.41
2022-12-31T02:20:59.862Z,99338.00
2022-12-31T02:25:21.907Z,99326.97
2022-12-31T02:29:55.972Z,99336.34
2022-12-31T02:34:17.792Z,99349.69
2022-12-31T02:38:33.078Z,99359.31
2022-12-31T02:42:34.622Z,99351.53
2022-12-31T02:46:47.193Z,99341.84
2022-12-31T02:51:23.027Z,99347.66
2022-12-31T02:55:24.535Z,99353.16
2022-12-31T03:00:07.307Z,99358.38
2022-12-31T03:04:30.119Z,99350.88
2022-12-31T03:08:31.726Z,99350.31
2022-12-31T03:12:47.669Z,99375.78
2022-12-31T03:16:49.304Z,99343.00
2022-12-31T03:21:17.517Z,99362.41
2022-12-31T03:25:37.897Z,99356.84
2022-12-31T03:29:39.422Z,99350.44
2022-12-31T03:33:41.946Z,99348.47
2022-12-31T03:37:43.722Z,99357.94
2022-12-31T03:41:45.300Z,99365.16
2022-12-31T03:45:52.020Z,99361.81
2022-12-31T03:49:53.803Z,99359.31
2022-12-31T03:53:55.384Z,99354.84
2022-12-31T03:57:57.285Z,99357.00
2022-12-31T04:01:58.970Z,99364.38
2022-12-31T04:06:00.719Z,99367.63
2022-12-31T04:10:04.198Z,99375.84
2022-12-31T04:14:05.857Z,99379.75
2022-12-31T04:18:07.453Z,99391.84
2022-12-31T04:22:09.217Z,99395.13
2022-12-31T04:26:10.863Z,99401.22
2022-12-31T04:30:13.547Z,99407.91
2022-12-31T04:34:15.081Z,99422.63
2022-12-31T04:38:16.664Z,99405.72
2022-12-31T04:42:18.318Z,99417.41
2022-12-31T04:46:26.505Z,99416.56
2022-12-31T04:50:28.052Z,99410.94
2022-12-31T04:54:29.581Z,99416.78
2022-12-31T04:58:31.195Z,99426.16
2022-12-31T05:02:32.835Z,99428.34
2022-12-31T05:06:34.594Z,99423.31
2022-12-31T05:10:36.529Z,99421.25
2022-12-31T05:14:38.054Z,99417.53
2022-12-31T05:18:39.579Z,99445.75
2022-12-31T05:22:41.189Z,99435.06
2022-12-31T05:26:42.718Z,99433.03
2022-12-31T05:30:44.907Z,99429.94
2022-12-31T05:34:46.517Z,99431.78
2022-12-31T05:38:48.047Z,99439.22
2022-12-31T05:42:50.499Z,99444.19
2022-12-31T05:46:52.089Z,99445.84
2022-12-31T05:50:54.313Z,99458.00
2022-12-31T05:54:56.242Z,99458.50
2022-12-31T05:58:57.837Z,99444.28
2022-12-31T06:02:59.476Z,99452.47
2022-12-31T06:07:01.081Z,99449.66
2022-12-31T06:11:02.802Z,99446.19
2022-12-31T06:15:05.260Z,99456.13
2022-12-31T06:19:06.955Z,99454.53
2022-12-31T06:23:08.504Z,99464.41
2022-12-31T06:27:10.097Z,99467.19
2022-12-31T06:31:14.341Z,99469.09
2022-12-31T06:35:16.201Z,99477.06
2022-12-31T06:39:17.793Z,99484.38
2022-12-31T06:43:19.677Z,99498.72
2022-12-31T06:47:21.295Z,99500.69
2022-12-31T06:51:22.945Z,99503.56
2022-12-31T06:55:25.708Z,99519.97
2022-12-31T06:59:29.466Z,99522.81
2022-12-31T07:03:51.258Z,99529.44
2022-12-31T07:08:07.535Z,99520.84
2022-12-31T07:12:43.304Z,99512.47
2022-12-31T07:17:03.984Z,99503.34
2022-12-31T07:21:13.289Z,99518.97
2022-12-31T07:25:17.142Z,99511.81
2022-12-31T07:29:48.348Z,99507.97
2022-12-31T07:34:01.777Z,99514.13
2022-12-31T07:38:21.579Z,99528.91
2022-12-31T07:43:00.740Z,99531.78
2022-12-31T07:47:05.333Z,99546.38
2022-12-31T07:51:09.479Z,99546.38
2022-12-31T07:55:14.442Z,99560.56
2022-12-31T07:59:36.397Z,99555.53
2022-12-31T08:04:10.223Z,99557.25
2022-12-31T08:08:39.407Z,99570.81
2022-12-31T08:12:41.624Z,99581.91
2022-12-31T08:16:43.613Z,99579.69
2022-12-31T08:21:15.053Z,99596.03
2022-12-31T08:25:26.021Z,99608.66
2022-12-31T08:29:31.026Z,99613.31
2022-12-31T08:33:44.840Z,99611.66
2022-12-31T08:38:18.939Z,99609.03
2022-12-31T08:42:44.033Z,99607.38
2022-12-31T08:46:45.618Z,99615.81
2022-12-31T08:50:47.543Z,99613.53
2022-12-31T08:54:49.760Z,99612.88
2022-12-31T08:59:00.088Z,99596.13
2022-12-31T09:03:26.694Z,99602.78
2022-12-31T09:07:38.144Z,99605.75
2022-12-31T09:12:01.545Z,99601.69
2022-12-31T09:16:16.870Z,99607.84
2022-12-31T09:20:44.611Z,99596.72
2022-12-31T09:24:47.927Z,99619.22
2022-12-31T09:29:10.833Z,99620.53
2022-12-31T09:33:31.613Z,99616.88
2022-12-31T09:37:50.761Z,99618.81
2022-12-31T09:42:04.861Z,99633.84
2022-12-31T09:46:18.815Z,99636.06
2022-12-31T09:50:38.278Z,99639.66
2022-12-31T09:55:09.510Z,99630.97
2022-12-31T09:59:23.328Z,99640.94
2022-12-31T10:03:35.809Z,99636.41
2022-12-31T10:08:04.016Z,99637.81
2022-12-31T10:12:23.953Z,99642.56
2022-12-31T10:16:45.159Z,99655.50
2022-12-31T10:21:10.075Z,99634.88
2022-12-31T10:25:38.430Z,99638.25
2022-12-31T10:29:50.007Z,99632.84
2022-12-31T10:34:10.379Z,99624.06
2022-12-31T10:38:34.096Z,99618.59
2022-12-31T10:42:47.819Z,99615.56
2022-12-31T10:47:13.728Z,99625.28
2022-12-31T10:51:40.972Z,99621.25
2022-12-31T10:56:07.908Z,99633.97
2022-12-31T11:00:16.067Z,99630.00
2022-12-31T11:04:47.573Z,99628.34
2022-12-31T11:09:14.019Z,99630.13
2022-12-31T11:13:53.366Z,99627.81
2022-12-31T11:18:05.292Z,99638.16
2022-12-31T11:22:23.194Z,99658.97
2022-12-31T11:26:30.600Z,99658.69
2022-12-31T11:30:57.240Z,99649.06
2022-12-31T11:35:16.864Z,99639.34
2022-12-31T11:39:46.560Z,99631.81
2022-12-31T11:44:27.187Z,99631.19
2022-12-31T11:48:57.571Z,99636.56
2022-12-31T11:53:24.034Z,99634.78
2022-12-31T11:57:35.629Z,99615.69
2022-12-31T12:02:00.954Z,99613.63
2022-12-31T12:06:02.608Z,99596.25
2022-12-31T12:10:16.701Z,99603.13
2022-12-31T12:14:20.727Z,99610.56
2022-12-31T12:18:42.328Z,99609.22
2022-12-31T12:22:56.306Z,99612.72
2022-12-31T12:26:58.168Z,99616.31
2022-12-31T12:31:02.458Z,99608.63
2022-12-31T12:35:23.216Z,99609.09
2022-12-31T12:39:33.213Z,99597.41
2022-12-31T12:43:37.401Z,99587.03
2022-12-31T12:47:44.668Z,99583.78
2022-12-31T12:51:49.011Z,99584.56
2022-12-31T12:56:05.871Z,99589.16
2022-12-31T13:00:22.920Z,99593.75
2022-12-31T13:04:37.814Z,99584.03
2022-12-31T13:09:04.247Z,99588.41
2022-12-31T13:13:25.265Z,99585.19
2022-12-31T13:17:37.116Z,99585.53
2022-12-31T13:21:59.381Z,99578.41
2022-12-31T13:26:11.436Z,99574.56
2022-12-31T13:30:30.868Z,99575.19
2022-12-31T13:34:37.414Z,99580.47
2022-12-31T13:38:44.673Z,99572.69
2022-12-31T13:42:55.145Z,99560.50
2022-12-31T13:47:10.639Z,99570.75
2022-12-31T13:51:24.350Z,99559.56
2022-12-31T13:55:34.299Z,99565.69
2022-12-31T13:59:39.617Z,99549.22
2022-12-31T14:03:59.494Z,99552.53
2022-12-31T14:08:04.879Z,99549.53
2022-12-31T14:12:15.956Z,99544.25
2022-12-31T14:16:38.465Z,99545.81
2022-12-31T14:20:54.200Z,99546.44
2022-12-31T14:24:59.361Z,99563.25
2022-12-31T14:29:09.971Z,99562.72
2022-12-31T14:33:29.460Z,99577.19
2022-12-31T14:37:52.096Z,99577.81
2022-12-31T14:42:10.568Z,99587.81
2022-12-31T14:46:39.023Z,99587.28
2022-12-31T14:50:45.377Z,99595.81
2022-12-31T14:55:02.041Z,99606.81
2022-12-31T14:59:04.309Z,99610.69
2022-12-31T15:03:07.228Z,99615.84
2022-12-31T15:07:30.403Z,99609.31
2022-12-31T15:11:46.263Z,99603.97
2022-12-31T15:15:53.705Z,99603.34
2022-12-31T15:20:13.213Z,99609.91
2022-12-31T15:24:23.800Z,99614.53
2022-12-31T15:28:39.909Z,99618.34
2022-12-31T15:32:46.147Z,99624.31
2022-12-31T15:37:02.662Z,99627.25
2022-12-31T15:41:26.297Z,99623.72
2022-12-31T15:45:38.083Z,99629.88
2022-12-31T15:49:45.484Z,99624.94
2022-12-31T15:53:53.068Z,99623.06
2022-12-31T15:58:00.299Z,99618.69
2022-12-31T16:02:02.116Z,99625.13
2022-12-31T16:06:10.837Z,99639.59
2022-12-31T16:10:20.024Z,99626.53
2022-12-31T16:14:36.569Z,99626.00
2022-12-31T16:18:43.278Z,99628.25
2022-12-31T16:22:52.545Z,99634.31
2022-12-31T16:26:57.335Z,99643.75
2022-12-31T16:31:06.950Z,99643.22
2022-12-31T16:35:26.257Z,99647.09
2022-12-31T16:39:32.318Z,99642.66
2022-12-31T16:43:39.642Z,99642.94
2022-12-31T16:47:43.261Z,99658.78
2022-12-31T16:51:50.013Z,99651.00
2022-12-31T16:56:00.188Z,99645.97
2022-12-31T17:00:06.358Z,99645.38
2022-12-31T17:04:15.311Z,99633.75
2022-12-31T17:08:38.079Z,99629.00
2022-12-31T17:13:27.059Z,99626.50
2022-12-31T17:17:22.183Z,99642.00
2022-12-31T17:21:27.377Z,99642.84
2022-12-31T17:25:33.077Z,99637.47
2022-12-31T17:29:36.283Z,99635.00
2022-12-31T17:33:38.684Z,99641.94
2022-12-31T17:37:40.266Z,99643.88
2022-12-31T17:41:46.217Z,99633.00
2022-12-31T17:45:51.522Z,99641.63
2022-12-31T17:49:53.524Z,99649.13
2022-12-31T17:53:55.093Z,99658.03
2022-12-31T17:57:57.961Z,99662.22
2022-12-31T18:02:05.526Z,99657.78
2022-12-31T18:06:16.090Z,99657.00
2022-12-31T18:10:21.223Z,99656.47
2022-12-31T18:14:22.906Z,99658.94
2022-12-31T18:18:27.314Z,99663.44
2022-12-31T18:22:28.893Z,99665.44
2022-12-31T18:26:32.738Z,99667.75
2022-12-31T18:30:36.294Z,99672.84
2022-12-31T18:34:38.581Z,99684.22
2022-12-31T18:38:40.755Z,99689.53
2022-12-31T18:42:43.286Z,99694.34
2022-12-31T18:46:44.943Z,99687.75
2022-12-31T18:50:48.028Z,99704.16
2022-12-31T18:54:49.668Z,99699.16
2022-12-31T18:58:51.419Z,99698.06
2022-12-31T19:02:53.034Z,99689.66
2022-12-31T19:06:55.051Z,99709.06
2022-12-31T19:10:56.857Z,99700.63
2022-12-31T19:14:59.752Z,99700.28
2022-12-31T19:19:08.604Z,99700.53
2022-12-31T19:23:19.037Z,99687.13
2022-12-31T19:27:20.577Z,99703.25
2022-12-31T19:31:22.556Z,99703.16
2022-12-31T19:35:24.824Z,99695.97
2022-12-31T19:39:26.440Z,99699.28
2022-12-31T19:43:28.368Z,99688.78
2022-12-31T19:47:29.921Z,99697.75
2022-12-31T19:51:31.460Z,99693.88
2022-12-31T19:55:33.045Z,99688.66
2022-12-31T19:59:34.611Z,99697.31
2022-12-31T20:03:36.480Z,99704.56
2022-12-31T20:07:38.162Z,99694.03
2022-12-31T20:11:39.774Z,99701.56
2022-12-31T20:15:47.713Z,99708.47
2022-12-31T20:19:49.837Z,99712.09
2022-12-31T20:23:53.063Z,99712.31
2022-12-31T20:27:55.493Z,99709.78
2022-12-31T20:31:57.151Z,99712.81
2022-12-31T20:36:05.358Z,99710.09
2022-12-31T20:40:07.665Z,99711.44
2022-12-31T20:44:09.472Z,99711.19
2022-12-31T20:48:11.071Z,99705.63
2022-12-31T20:52:13.238Z,99710.63
2022-12-31T20:56:16.948Z,99710.63
2022-12-31T21:00:20.283Z,99695.91
2022-12-31T21:04:23.725Z,99702.25
2022-12-31T21:08:32.640Z,99709.44
2022-12-31T21:12:45.350Z,99699.38
2022-12-31T21:16:47.238Z,99703.75
2022-12-31T21:20:50.739Z,99709.84
2022-12-31T21:24:52.414Z,99712.81
2022-12-31T21:28:54.040Z,99710.75
2022-12-31T21:32:55.749Z,99709.22
2022-12-31T21:36:57.419Z,99711.81
2022-12-31T21:41:04.336Z,99712.28
2022-12-31T21:45:06.829Z,99724.53
2022-12-31T21:49:08.948Z,99725.81
2022-12-31T21:53:10.553Z,99732.97
2022-12-31T21:57:12.253Z,99740.22
2022-12-31T22:01:39.064Z,99738.31
2022-12-31T22:05:49.694Z,99755.38
2022-12-31T22:09:51.286Z,99755.19
2022-12-31T22:13:53.702Z,99762.22
2022-12-31T22:17:55.314Z,99780.16
2022-12-31T22:21:56.860Z,99778.56
2022-12-31T22:25:59.293Z,99779.47
2022-12-31T22:30:01.196Z,99784.28
2022-12-31T22:34:02.922Z,99787.94
2022-12-31T22:38:09.991Z,99783.22
2022-12-31T22:42:13.622Z,99779.16
2022-12-31T22:46:21.384Z,99803.94
2022-12-31T22:50:23.017Z,99805.34
2022-12-31T22:54:24.605Z,99804.00
2022-12-31T22:58:26.499Z,99804.06
2022-12-31T23:02:28.108Z,99804.06
2022-12-31T23:06:29.983Z,99809.34
2022-12-31T23:10:49.938Z,99803.56
2022-12-31T23:15:10.222Z,99806.91
2022-12-31T23:19:30.749Z,99813.63
2022-12-31T23:23:32.824Z,99819.19
2022-12-31T23:27:34.505Z,99822.25
2022-12-31T23:31:37.123Z,99828.66
2022-12-31T23:35:38.786Z,99825.34
2022-12-31T23:39:40.861Z,99814.25
2022-12-31T23:43:42.457Z,99809.56
2022-12-31T23:47:44.035Z,99817.03
2022-12-31T23:51:45.944Z,99814.31
2022-12-31T23:55:47.519Z,99814.00
2022-12-31T23:59:49.050Z,99815.13
